Etusivu
METAR-TAF:

METAR-TAF

Lentoasemat :

Savonlinnan lentoasema

Savonlinna, Suomi

Leveyspiiri: 61-57N, Pituuspiiri: 028-57E, korkeus merenpinnasta: 95 m

Tämänhetkinen sää

Tämä raportti tehtiin 19 minuuttia sitten, kello 16.20 UTC
Tuuli 2 kn lounaasta
Lämpötila -7°C
Kosteus 86%
Ilmanpaine 1035 hPa
Näkyvyys 10 km tai enemmän
Pilvistä 1000 ft:n korkeudessa

METAR: EFSA 141620Z 22002KT 9999 OVC010 M07/M09 Q1035

Aika: 18:39 (16:39 UTC)

Sääennuste

Tämä raportti tehtiin 2 tuntia ja 16 minuuttia sitten, kello 14.23 UTC
Ennuste voimassa 14. päivästä klo 15 UTC - 14. päivään klo 19 UTC
Tuuli 2 kn eri suunnista
Näkyvyys 10 km tai enemmän
Pilvistä 1300 ft:n korkeudessa
Ajoittain
14. päivästä klo 15 UTC - 14. päivään klo 19 UTC
Hajonneita pilviä 800 ft:n korkeudessa

TAF: EFSA 141423Z 1415/1419 VRB02KT 9999 OVC013 TEMPO 1415/1419 BKN008

Säähavainnot ja -ennusteet yli 4000 lentoasemalta (METAR- ja TAF-raportit).

Käytössä olevat sääasemat on merkitty karttaan keltaisilla ja punaisilla pisteillä.

Aseta hiiri pisteen päälle nähdäksesi sääaseman nimen.

Klikkaa sitten nähdäksesi säähavainnot ja -ennusteet.

Kartan vaihtaminen: klikkaa mustalla rastilla varustettuja vihreitä pisteitä, niin voit zoomata sisään; viivalla varustettua vihreää pistettä, niin voit zoomata ulos tai vihreitä nuolia, niin pääset viereisille kartoille.


METAR-TAF: